METAR Data
IDs: Format: Raw Decoded Include TAF

Data at: 0243 UTC 25 Jan 2020

PAUN 250156Z AUTO 33010KT 10SM CLR M22/M27 A3019 RMK AO2 SLP228 T12221267 FZRANO
PAUN 250056Z AUTO 34006KT 10SM CLR M23/M27 A3019 RMK AO2 SLP227 T12281267 FZRANO
PAUN 242356Z AUTO 34005KT 10SM CLR M23/M27 A3018 RMK AO2 SLP226 T12281267 11222 21256 55009 FZRANO
PAUN 242256Z AUTO 32013KT 10SM CLR M22/M26 A3018 RMK AO2 SLP225 T12221261 FZRANO
PAUN 242156Z AUTO 33009KT 10SM CLR M23/M27 A3020 RMK AO2 SLP233 T12331272 FZRANO
PAUN 242056Z AUTO 33009KT 10SM CLR M24/M28 A3021 RMK AO2 SLP235 T12441278 50005 FZRANO
PAUN 241956Z AUTO 34006KT 10SM CLR M23/M27 A3021 RMK AO2 SLP235 T12331272 FZRANO
PAUN 241856Z AUTO 32005KT 10SM CLR M23/M27 A3020 RMK AO2 SLP232 T12331267 FZRANO
PAUN 241756Z AUTO 36006KT 10SM CLR M24/M28 A3020 RMK AO2 SLP230 T12441278 11228 21256 55003 FZRANO
PAUN 241656Z AUTO 33008KT 10SM CLR M24/M28 A3019 RMK AO2 SLP229 T12441278 FZRANO
PAUN 241556Z AUTO 33005KT 10SM CLR M24/M27 A3020 RMK AO2 SLP230 T12441272 FZRANO
PAUN 241456Z AUTO 34007KT 10SM CLR M24/M28 A3021 RMK AO2 SLP233 T12441278 58004 FZRANO
PAUN 241356Z AUTO 33010KT 10SM CLR M23/M26 A3021 RMK AO2 SLP233 T12281261 FZRANO
PAUN 241256Z AUTO 35005KT 10SM CLR M26/M28 A3022 RMK AO2 SLP237 T12561283 FZRANO
PAUN 241156Z AUTO 32007KT 10SM CLR M24/M28 A3022 RMK AO2 SLP237 T12441278 11217 21283 53005 FZRANO
PAUN 241056Z AUTO 00000KT 10SM CLR M28/M31 A3021 RMK AO2 SLP234 T12831306 FZRANO
PAUN 240956Z AUTO 00000KT 10SM CLR M27/M29 A3021 RMK AO2 SLP234 T12671294 FZRANO
PAUN 240856Z AUTO 32004KT 10SM CLR M23/M26 A3020 RMK AO2 SLP232 T12331261 411221244 53006 FZRANO
PAUN 240756Z AUTO 34004KT 10SM CLR M24/M27 A3019 RMK AO2 SLP228 T12441272 FZRANO
PAUN 240656Z AUTO 34006KT 10SM CLR M24/M28 A3019 RMK AO2 SLP226 T12441278 FZRANO
PAUN 240556Z AUTO 33007KT 10SM CLR M22/M26 A3018 RMK AO2 SLP225 T12221261 11144 21222 51009 FZRANO
PAUN 240456Z AUTO 31006KT 10SM CLR M21/M24 A3018 RMK AO2 SLP224 T12061239 FZRANO
PAUN 240356Z AUTO 34012KT 10SM SCT080 M20/M23 A3017 RMK AO2 SLP221 T12001233 FZRANO
PAUN 240256Z AUTO 35012KT 10SM OVC070 M18/M22 A3016 RMK AO2 SLP216 T11831217 51012 FZRANO
PAUN 240156Z AUTO 34015KT 10SM OVC070 M17/M21 A3015 RMK AO2 SLP214 T11721211 FZRANO
PAUN 240056Z AUTO 33011KT 10SM OVC060 M15/M19 A3013 RMK AO2 SLP208 T11501189 FZRANO
PAUN 232356Z AUTO 34011KT 10SM OVC055 M15/M18 A3012 RMK AO2 SNE11B36E46 SLP204 P0000 60000 T11501183 11128 21150 51014 FZRANO
PAUN 232256Z AUTO 34010KT 9SM -SN OVC049 M14/M18 A3011 RMK AO2 SNE06B48 SLP200 P0000 T11391178 FZRANO
PAUN 232156Z AUTO 33007KT 9SM -SN OVC049 M14/M17 A3010 RMK AO2 SNB2059 SLP196 P0000 T11391172 FZRANO
PAUN 232056Z AUTO 33008KT 10SM OVC047 M13/M17 A3008 RMK AO2 SNE49 SLP191 P0000 60000 T11331167 51019 FZRANO
PAUN 231956Z AUTO 32007KT 9SM -SN OVC047 M13/M16 A3007 RMK AO2 SLP186 P0000 T11331161 FZRANO
PAUN 231926Z AUTO 33006KT 9SM -SN SCT029 OVC045 M13/M16 A3006 RMK AO2 P0000 FZRANO
PAUN 231856Z AUTO 34007KT 9SM -SN BKN029 OVC045 M13/M16 A3004 RMK AO2 SLP177 P0000 T11331156 FZRANO
PAUN 231756Z AUTO 32009KT 9SM -SN SCT019 OVC045 M13/M16 A3002 RMK AO2 SLP171 P0000 60000 T11281156 11122 21133 51014 FZRANO
PAUN 231728Z AUTO 33007KT 9SM -SN OVC019 M12/M14 A3002 RMK AO2 P0000 FZRANO
PAUN 231656Z AUTO 34006KT 9SM -SN OVC010 M12/M14 A3001 RMK AO2 SLP167 P0000 T11221139 FZRANO
PAUN 231556Z AUTO 26005KT 9SM -SN OVC012 M12/M14 A3000 RMK AO2 SLP163 P0000 T11221139 FZRANO
PAUN 231456Z AUTO 29007KT 9SM -SN BKN010 BKN021 OVC047 M12/M14 A2998 RMK AO2 SLP158 P0000 60000 T11221139 51013 FZRANO
PAUN 231447Z AUTO 28007KT 9SM -SN SCT010 BKN021 OVC047 M12/M14 A2998 RMK AO2 P0000 FZRANO